sensor_id;sensor_type;location;lat;lon;timestamp;P1;durP1;ratioP1;P2;durP2;ratioP2
38238;SDS011;24035;48.900;9.188;2023-12-20T00:01:29;3.08;;;1.25;;
38238;SDS011;24035;48.900;9.188;2023-12-20T00:03:54;4.57;;;1.38;;
38238;SDS011;24035;48.900;9.188;2023-12-20T00:06:20;4.53;;;1.05;;
38238;SDS011;24035;48.900;9.188;2023-12-20T00:08:46;2.25;;;0.82;;
38238;SDS011;24035;48.900;9.188;2023-12-20T00:11:11;5.03;;;0.80;;
38238;SDS011;24035;48.900;9.188;2023-12-20T00:13:37;2.95;;;1.08;;
38238;SDS011;24035;48.900;9.188;2023-12-20T00:16:03;4.57;;;1.77;;
38238;SDS011;24035;48.900;9.188;2023-12-20T00:18:29;3.55;;;1.23;;
38238;SDS011;24035;48.900;9.188;2023-12-20T00:20:55;5.10;;;1.65;;
38238;SDS011;24035;48.900;9.188;2023-12-20T00:23:20;3.75;;;1.45;;
38238;SDS011;24035;48.900;9.188;2023-12-20T00:25:48;4.68;;;1.48;;
38238;SDS011;24035;48.900;9.188;2023-12-20T00:28:14;7.05;;;2.42;;
38238;SDS011;24035;48.900;9.188;2023-12-20T00:30:39;5.85;;;2.53;;
38238;SDS011;24035;48.900;9.188;2023-12-20T00:33:05;3.92;;;1.50;;
38238;SDS011;24035;48.900;9.188;2023-12-20T00:35:31;4.82;;;1.75;;
38238;SDS011;24035;48.900;9.188;2023-12-20T00:37:58;6.32;;;1.92;;
38238;SDS011;24035;48.900;9.188;2023-12-20T00:40:24;5.07;;;1.75;;
38238;SDS011;24035;48.900;9.188;2023-12-20T00:42:49;3.97;;;1.23;;
38238;SDS011;24035;48.900;9.188;2023-12-20T00:45:15;4.50;;;1.38;;
38238;SDS011;24035;48.900;9.188;2023-12-20T00:47:41;4.10;;;1.38;;
38238;SDS011;24035;48.900;9.188;2023-12-20T00:50:07;3.38;;;1.33;;
38238;SDS011;24035;48.900;9.188;2023-12-20T00:52:34;3.47;;;1.40;;
38238;SDS011;24035;48.900;9.188;2023-12-20T00:54:59;4.97;;;1.20;;
38238;SDS011;24035;48.900;9.188;2023-12-20T00:57:25;2.90;;;1.15;;
38238;SDS011;24035;48.900;9.188;2023-12-20T00:59:51;4.85;;;1.15;;
38238;SDS011;24035;48.900;9.188;2023-12-20T01:02:16;3.13;;;1.45;;
38238;SDS011;24035;48.900;9.188;2023-12-20T01:04:42;3.38;;;1.17;;
38238;SDS011;24035;48.900;9.188;2023-12-20T01:07:08;3.50;;;1.20;;
38238;SDS011;24035;48.900;9.188;2023-12-20T01:09:34;7.13;;;1.50;;
38238;SDS011;24035;48.900;9.188;2023-12-20T01:11:59;2.03;;;0.90;;
38238;SDS011;24035;48.900;9.188;2023-12-20T01:14:25;2.97;;;1.10;;
38238;SDS011;24035;48.900;9.188;2023-12-20T01:16:51;2.95;;;1.38;;
38238;SDS011;24035;48.900;9.188;2023-12-20T01:19:16;3.75;;;1.45;;
38238;SDS011;24035;48.900;9.188;2023-12-20T01:21:42;2.15;;;0.68;;
38238;SDS011;24035;48.900;9.188;2023-12-20T01:24:08;3.20;;;0.95;;
38238;SDS011;24035;48.900;9.188;2023-12-20T01:26:34;3.95;;;1.40;;
38238;SDS011;24035;48.900;9.188;2023-12-20T01:28:59;4.15;;;1.27;;
38238;SDS011;24035;48.900;9.188;2023-12-20T01:31:26;4.43;;;1.98;;
38238;SDS011;24035;48.900;9.188;2023-12-20T01:33:52;4.13;;;1.45;;
38238;SDS011;24035;48.900;9.188;2023-12-20T01:36:18;4.70;;;1.20;;
38238;SDS011;24035;48.900;9.188;2023-12-20T01:38:44;4.28;;;1.20;;
38238;SDS011;24035;48.900;9.188;2023-12-20T01:41:10;4.20;;;1.50;;
38238;SDS011;24035;48.900;9.188;2023-12-20T01:43:36;3.47;;;1.05;;
38238;SDS011;24035;48.900;9.188;2023-12-20T01:46:02;4.60;;;1.52;;
38238;SDS011;24035;48.900;9.188;2023-12-20T01:48:28;4.03;;;1.30;;
38238;SDS011;24035;48.900;9.188;2023-12-20T01:50:54;6.28;;;1.38;;
38238;SDS011;24035;48.900;9.188;2023-12-20T01:53:21;6.38;;;1.35;;
38238;SDS011;24035;48.900;9.188;2023-12-20T01:55:50;2.65;;;0.95;;
38238;SDS011;24035;48.900;9.188;2023-12-20T01:58:19;3.30;;;1.13;;
38238;SDS011;24035;48.900;9.188;2023-12-20T02:00:46;4.53;;;1.00;;
38238;SDS011;24035;48.900;9.188;2023-12-20T02:03:13;2.63;;;0.98;;
38238;SDS011;24035;48.900;9.188;2023-12-20T02:05:38;1.73;;;0.70;;
38238;SDS011;24035;48.900;9.188;2023-12-20T02:08:05;5.20;;;0.90;;
38238;SDS011;24035;48.900;9.188;2023-12-20T02:10:32;3.70;;;1.25;;
38238;SDS011;24035;48.900;9.188;2023-12-20T02:12:57;2.15;;;0.90;;
38238;SDS011;24035;48.900;9.188;2023-12-20T02:15:24;2.38;;;0.90;;
38238;SDS011;24035;48.900;9.188;2023-12-20T02:17:50;2.03;;;0.82;;
38238;SDS011;24035;48.900;9.188;2023-12-20T02:20:15;1.65;;;0.55;;
38238;SDS011;24035;48.900;9.188;2023-12-20T02:22:41;1.77;;;0.77;;
38238;SDS011;24035;48.900;9.188;2023-12-20T02:25:07;1.52;;;0.60;;
38238;SDS011;24035;48.900;9.188;2023-12-20T02:27:33;1.00;;;0.40;;
38238;SDS011;24035;48.900;9.188;2023-12-20T02:30:00;0.73;;;0.30;;
38238;SDS011;24035;48.900;9.188;2023-12-20T02:32:26;1.42;;;0.40;;
38238;SDS011;24035;48.900;9.188;2023-12-20T02:34:52;1.98;;;0.60;;
38238;SDS011;24035;48.900;9.188;2023-12-20T02:37:18;0.28;;;0.10;;
38238;SDS011;24035;48.900;9.188;2023-12-20T02:39:44;0.90;;;0.25;;
38238;SDS011;24035;48.900;9.188;2023-12-20T02:42:10;0.95;;;0.30;;
38238;SDS011;24035;48.900;9.188;2023-12-20T02:47:51;0.43;;;0.10;;
38238;SDS011;24035;48.900;9.188;2023-12-20T02:50:17;0.40;;;0.10;;
38238;SDS011;24035;48.900;9.188;2023-12-20T02:52:44;0.13;;;0.03;;
38238;SDS011;24035;48.900;9.188;2023-12-20T02:55:10;0.93;;;0.15;;
38238;SDS011;24035;48.900;9.188;2023-12-20T02:57:36;0.25;;;0.00;;
38238;SDS011;24035;48.900;9.188;2023-12-20T03:00:07;0.35;;;0.00;;
38238;SDS011;24035;48.900;9.188;2023-12-20T03:02:35;0.77;;;0.20;;
38238;SDS011;24035;48.900;9.188;2023-12-20T03:05:02;0.20;;;0.10;;
38238;SDS011;24035;48.900;9.188;2023-12-20T03:07:28;0.55;;;0.20;;
38238;SDS011;24035;48.900;9.188;2023-12-20T03:09:54;0.75;;;0.20;;
38238;SDS011;24035;48.900;9.188;2023-12-20T03:12:20;0.22;;;0.10;;
38238;SDS011;24035;48.900;9.188;2023-12-20T03:14:45;0.00;;;0.00;;
38238;SDS011;24035;48.900;9.188;2023-12-20T03:17:12;0.75;;;0.20;;
38238;SDS011;24035;48.900;9.188;2023-12-20T03:19:38;0.85;;;0.20;;
38238;SDS011;24035;48.900;9.188;2023-12-20T03:22:04;0.38;;;0.20;;
38238;SDS011;24035;48.900;9.188;2023-12-20T03:24:29;0.35;;;0.10;;
38238;SDS011;24035;48.900;9.188;2023-12-20T03:26:55;0.10;;;0.00;;
38238;SDS011;24035;48.900;9.188;2023-12-20T03:29:21;0.00;;;0.00;;
38238;SDS011;24035;48.900;9.188;2023-12-20T03:31:46;0.10;;;0.00;;
38238;SDS011;24035;48.900;9.188;2023-12-20T03:34:12;0.35;;;0.00;;
38238;SDS011;24035;48.900;9.188;2023-12-20T03:36:38;0.55;;;0.10;;
38238;SDS011;24035;48.900;9.188;2023-12-20T03:39:04;0.20;;;0.10;;
38238;SDS011;24035;48.900;9.188;2023-12-20T03:41:30;0.20;;;0.00;;
38238;SDS011;24035;48.900;9.188;2023-12-20T03:43:55;0.40;;;0.10;;
38238;SDS011;24035;48.900;9.188;2023-12-20T03:46:21;0.10;;;0.05;;
38238;SDS011;24035;48.900;9.188;2023-12-20T03:48:47;0.90;;;0.30;;
38238;SDS011;24035;48.900;9.188;2023-12-20T03:51:13;0.00;;;0.00;;
38238;SDS011;24035;48.900;9.188;2023-12-20T03:53:39;0.38;;;0.20;;
38238;SDS011;24035;48.900;9.188;2023-12-20T03:56:05;0.77;;;0.17;;
38238;SDS011;24035;48.900;9.188;2023-12-20T03:58:31;0.50;;;0.13;;
38238;SDS011;24035;48.900;9.188;2023-12-20T04:00:57;0.05;;;0.00;;
38238;SDS011;24035;48.900;9.188;2023-12-20T04:03:23;0.10;;;0.00;;
38238;SDS011;24035;48.900;9.188;2023-12-20T04:05:49;0.10;;;0.00;;
38238;SDS011;24035;48.900;9.188;2023-12-20T04:08:14;0.45;;;0.13;;
38238;SDS011;24035;48.900;9.188;2023-12-20T04:10:40;0.10;;;0.03;;
38238;SDS011;24035;48.900;9.188;2023-12-20T04:13:06;0.60;;;0.28;;
38238;SDS011;24035;48.900;9.188;2023-12-20T04:15:31;0.52;;;0.10;;
38238;SDS011;24035;48.900;9.188;2023-12-20T04:17:57;0.73;;;0.30;;
38238;SDS011;24035;48.900;9.188;2023-12-20T04:20:23;0.43;;;0.10;;
38238;SDS011;24035;48.900;9.188;2023-12-20T04:22:48;0.00;;;0.00;;
38238;SDS011;24035;48.900;9.188;2023-12-20T04:25:14;0.73;;;0.30;;
38238;SDS011;24035;48.900;9.188;2023-12-20T04:27:40;0.05;;;0.00;;
38238;SDS011;24035;48.900;9.188;2023-12-20T04:30:05;0.47;;;0.10;;
38238;SDS011;24035;48.900;9.188;2023-12-20T04:32:32;0.40;;;0.10;;
38238;SDS011;24035;48.900;9.188;2023-12-20T04:34:58;0.30;;;0.10;;
38238;SDS011;24035;48.900;9.188;2023-12-20T04:37:24;1.20;;;0.70;;
38238;SDS011;24035;48.900;9.188;2023-12-20T04:39:50;0.50;;;0.10;;
38238;SDS011;24035;48.900;9.188;2023-12-20T04:42:15;0.32;;;0.03;;
38238;SDS011;24035;48.900;9.188;2023-12-20T04:44:41;0.45;;;0.13;;
38238;SDS011;24035;48.900;9.188;2023-12-20T04:47:08;0.65;;;0.20;;
38238;SDS011;24035;48.900;9.188;2023-12-20T04:49:35;0.10;;;0.00;;
38238;SDS011;24035;48.900;9.188;2023-12-20T04:52:00;0.35;;;0.10;;
38238;SDS011;24035;48.900;9.188;2023-12-20T04:54:26;1.17;;;0.17;;
38238;SDS011;24035;48.900;9.188;2023-12-20T04:56:52;0.65;;;0.10;;
38238;SDS011;24035;48.900;9.188;2023-12-20T04:59:17;0.63;;;0.10;;
38238;SDS011;24035;48.900;9.188;2023-12-20T05:01:43;0.03;;;0.00;;
38238;SDS011;24035;48.900;9.188;2023-12-20T05:04:09;0.20;;;0.00;;
38238;SDS011;24035;48.900;9.188;2023-12-20T05:06:34;0.47;;;0.10;;
38238;SDS011;24035;48.900;9.188;2023-12-20T05:09:01;0.35;;;0.20;;
38238;SDS011;24035;48.900;9.188;2023-12-20T05:11:27;0.20;;;0.05;;
38238;SDS011;24035;48.900;9.188;2023-12-20T05:13:52;1.05;;;0.35;;
38238;SDS011;24035;48.900;9.188;2023-12-20T05:16:18;0.43;;;0.10;;
38238;SDS011;24035;48.900;9.188;2023-12-20T05:18:45;0.73;;;0.20;;
38238;SDS011;24035;48.900;9.188;2023-12-20T05:21:11;0.32;;;0.10;;
38238;SDS011;24035;48.900;9.188;2023-12-20T05:23:37;1.15;;;0.20;;
38238;SDS011;24035;48.900;9.188;2023-12-20T05:26:03;0.30;;;0.20;;
38238;SDS011;24035;48.900;9.188;2023-12-20T05:28:28;0.20;;;0.10;;
38238;SDS011;24035;48.900;9.188;2023-12-20T05:30:54;0.75;;;0.30;;
38238;SDS011;24035;48.900;9.188;2023-12-20T05:33:20;0.55;;;0.20;;
38238;SDS011;24035;48.900;9.188;2023-12-20T05:35:45;0.38;;;0.10;;
38238;SDS011;24035;48.900;9.188;2023-12-20T05:38:11;1.05;;;0.40;;
38238;SDS011;24035;48.900;9.188;2023-12-20T05:40:37;1.15;;;0.30;;
38238;SDS011;24035;48.900;9.188;2023-12-20T05:43:02;0.52;;;0.20;;
38238;SDS011;24035;48.900;9.188;2023-12-20T05:45:28;1.00;;;0.30;;
38238;SDS011;24035;48.900;9.188;2023-12-20T05:47:54;0.65;;;0.30;;
38238;SDS011;24035;48.900;9.188;2023-12-20T05:50:20;1.23;;;0.30;;
38238;SDS011;24035;48.900;9.188;2023-12-20T05:52:46;3.25;;;0.40;;
38238;SDS011;24035;48.900;9.188;2023-12-20T05:55:12;0.70;;;0.30;;
38238;SDS011;24035;48.900;9.188;2023-12-20T05:57:37;1.17;;;0.40;;
38238;SDS011;24035;48.900;9.188;2023-12-20T06:00:03;3.08;;;0.30;;
38238;SDS011;24035;48.900;9.188;2023-12-20T06:02:30;1.30;;;0.60;;
38238;SDS011;24035;48.900;9.188;2023-12-20T06:04:55;1.25;;;0.43;;
38238;SDS011;24035;48.900;9.188;2023-12-20T06:07:21;1.35;;;0.65;;
38238;SDS011;24035;48.900;9.188;2023-12-20T06:09:47;2.67;;;0.50;;
38238;SDS011;24035;48.900;9.188;2023-12-20T06:12:12;0.70;;;0.20;;
38238;SDS011;24035;48.900;9.188;2023-12-20T06:14:38;1.58;;;0.50;;
38238;SDS011;24035;48.900;9.188;2023-12-20T06:17:04;1.00;;;0.30;;
38238;SDS011;24035;48.900;9.188;2023-12-20T06:19:29;1.20;;;0.50;;
38238;SDS011;24035;48.900;9.188;2023-12-20T06:21:55;0.95;;;0.20;;
38238;SDS011;24035;48.900;9.188;2023-12-20T06:24:21;2.03;;;0.47;;
38238;SDS011;24035;48.900;9.188;2023-12-20T06:26:48;1.10;;;0.30;;
38238;SDS011;24035;48.900;9.188;2023-12-20T06:29:13;1.58;;;0.40;;
38238;SDS011;24035;48.900;9.188;2023-12-20T06:31:39;1.95;;;0.50;;
38238;SDS011;24035;48.900;9.188;2023-12-20T06:34:05;1.30;;;0.40;;
38238;SDS011;24035;48.900;9.188;2023-12-20T06:36:31;1.13;;;0.45;;
38238;SDS011;24035;48.900;9.188;2023-12-20T06:38:56;1.25;;;0.47;;
38238;SDS011;24035;48.900;9.188;2023-12-20T06:41:23;1.50;;;0.43;;
38238;SDS011;24035;48.900;9.188;2023-12-20T06:43:49;1.25;;;0.40;;
38238;SDS011;24035;48.900;9.188;2023-12-20T06:46:15;1.15;;;0.60;;
38238;SDS011;24035;48.900;9.188;2023-12-20T06:48:42;2.08;;;0.68;;
38238;SDS011;24035;48.900;9.188;2023-12-20T06:51:10;1.85;;;0.47;;
38238;SDS011;24035;48.900;9.188;2023-12-20T06:53:38;0.93;;;0.40;;
38238;SDS011;24035;48.900;9.188;2023-12-20T06:56:03;2.95;;;0.73;;
38238;SDS011;24035;48.900;9.188;2023-12-20T06:58:29;1.13;;;0.50;;
38238;SDS011;24035;48.900;9.188;2023-12-20T07:00:55;1.95;;;0.77;;
38238;SDS011;24035;48.900;9.188;2023-12-20T07:03:20;1.38;;;0.55;;
38238;SDS011;24035;48.900;9.188;2023-12-20T07:05:46;1.25;;;0.55;;
38238;SDS011;24035;48.900;9.188;2023-12-20T07:08:12;1.92;;;0.85;;
38238;SDS011;24035;48.900;9.188;2023-12-20T07:10:39;2.88;;;1.10;;
38238;SDS011;24035;48.900;9.188;2023-12-20T07:13:05;2.05;;;0.75;;
38238;SDS011;24035;48.900;9.188;2023-12-20T07:15:31;2.35;;;0.90;;
38238;SDS011;24035;48.900;9.188;2023-12-20T07:17:57;2.92;;;1.20;;
38238;SDS011;24035;48.900;9.188;2023-12-20T07:20:25;2.88;;;1.05;;
38238;SDS011;24035;48.900;9.188;2023-12-20T07:22:51;3.22;;;0.95;;
38238;SDS011;24035;48.900;9.188;2023-12-20T07:25:17;1.88;;;0.88;;
38238;SDS011;24035;48.900;9.188;2023-12-20T07:27:42;3.55;;;1.38;;
38238;SDS011;24035;48.900;9.188;2023-12-20T07:30:08;2.55;;;1.00;;
38238;SDS011;24035;48.900;9.188;2023-12-20T07:32:34;2.17;;;0.90;;
38238;SDS011;24035;48.900;9.188;2023-12-20T07:35:01;4.10;;;1.10;;
38238;SDS011;24035;48.900;9.188;2023-12-20T07:37:28;3.88;;;1.45;;
38238;SDS011;24035;48.900;9.188;2023-12-20T07:39:53;2.78;;;0.82;;
38238;SDS011;24035;48.900;9.188;2023-12-20T07:42:19;2.90;;;1.20;;
38238;SDS011;24035;48.900;9.188;2023-12-20T07:44:47;2.58;;;1.20;;
38238;SDS011;24035;48.900;9.188;2023-12-20T07:47:13;2.85;;;1.08;;
38238;SDS011;24035;48.900;9.188;2023-12-20T07:49:42;1.42;;;0.50;;
38238;SDS011;24035;48.900;9.188;2023-12-20T07:52:08;1.90;;;0.90;;
38238;SDS011;24035;48.900;9.188;2023-12-20T07:54:35;3.13;;;1.02;;
38238;SDS011;24035;48.900;9.188;2023-12-20T07:57:00;2.22;;;0.88;;
38238;SDS011;24035;48.900;9.188;2023-12-20T07:59:26;2.78;;;0.80;;
38238;SDS011;24035;48.900;9.188;2023-12-20T08:01:52;1.80;;;0.75;;
38238;SDS011;24035;48.900;9.188;2023-12-20T08:04:17;3.10;;;1.20;;
38238;SDS011;24035;48.900;9.188;2023-12-20T08:06:43;2.50;;;0.98;;
38238;SDS011;24035;48.900;9.188;2023-12-20T08:09:09;1.65;;;0.68;;
38238;SDS011;24035;48.900;9.188;2023-12-20T08:11:35;2.58;;;0.93;;
38238;SDS011;24035;48.900;9.188;2023-12-20T08:14:01;2.40;;;0.90;;
38238;SDS011;24035;48.900;9.188;2023-12-20T08:16:26;1.75;;;0.73;;
38238;SDS011;24035;48.900;9.188;2023-12-20T08:18:52;3.88;;;1.10;;
38238;SDS011;24035;48.900;9.188;2023-12-20T08:21:18;3.05;;;0.77;;
38238;SDS011;24035;48.900;9.188;2023-12-20T08:23:46;2.83;;;1.10;;
38238;SDS011;24035;48.900;9.188;2023-12-20T08:26:12;3.63;;;1.00;;
38238;SDS011;24035;48.900;9.188;2023-12-20T08:28:38;1.75;;;0.68;;
38238;SDS011;24035;48.900;9.188;2023-12-20T08:31:04;2.05;;;0.70;;
38238;SDS011;24035;48.900;9.188;2023-12-20T08:33:29;2.55;;;1.02;;
38238;SDS011;24035;48.900;9.188;2023-12-20T08:35:56;2.20;;;0.68;;
38238;SDS011;24035;48.900;9.188;2023-12-20T08:38:23;1.80;;;0.80;;
38238;SDS011;24035;48.900;9.188;2023-12-20T08:40:48;2.00;;;0.80;;
38238;SDS011;24035;48.900;9.188;2023-12-20T08:43:14;2.85;;;0.70;;
38238;SDS011;24035;48.900;9.188;2023-12-20T08:45:40;2.67;;;0.88;;
38238;SDS011;24035;48.900;9.188;2023-12-20T08:48:06;2.30;;;0.80;;
38238;SDS011;24035;48.900;9.188;2023-12-20T08:50:32;3.78;;;0.98;;
38238;SDS011;24035;48.900;9.188;2023-12-20T08:52:57;2.17;;;0.85;;
38238;SDS011;24035;48.900;9.188;2023-12-20T08:55:23;2.58;;;0.88;;
38238;SDS011;24035;48.900;9.188;2023-12-20T08:57:49;2.85;;;0.73;;
38238;SDS011;24035;48.900;9.188;2023-12-20T09:00:15;2.67;;;0.80;;
38238;SDS011;24035;48.900;9.188;2023-12-20T09:02:41;3.75;;;1.17;;
38238;SDS011;24035;48.900;9.188;2023-12-20T09:05:07;2.47;;;1.08;;
38238;SDS011;24035;48.900;9.188;2023-12-20T09:07:33;3.28;;;1.05;;
38238;SDS011;24035;48.900;9.188;2023-12-20T09:09:59;3.47;;;0.95;;
38238;SDS011;24035;48.900;9.188;2023-12-20T09:12:25;2.83;;;1.08;;
38238;SDS011;24035;48.900;9.188;2023-12-20T09:14:51;2.20;;;0.80;;
38238;SDS011;24035;48.900;9.188;2023-12-20T09:17:17;3.35;;;1.15;;
38238;SDS011;24035;48.900;9.188;2023-12-20T09:19:44;1.80;;;0.85;;
38238;SDS011;24035;48.900;9.188;2023-12-20T09:22:10;3.97;;;1.20;;
38238;SDS011;24035;48.900;9.188;2023-12-20T09:24:36;4.00;;;0.88;;
38238;SDS011;24035;48.900;9.188;2023-12-20T09:27:02;2.90;;;0.65;;
38238;SDS011;24035;48.900;9.188;2023-12-20T09:29:28;2.55;;;0.65;;
38238;SDS011;24035;48.900;9.188;2023-12-20T09:31:54;1.38;;;0.47;;
38238;SDS011;24035;48.900;9.188;2023-12-20T09:34:20;3.08;;;1.17;;
38238;SDS011;24035;48.900;9.188;2023-12-20T09:36:46;1.52;;;0.60;;
38238;SDS011;24035;48.900;9.188;2023-12-20T09:39:16;2.63;;;0.77;;
38238;SDS011;24035;48.900;9.188;2023-12-20T09:41:47;4.95;;;0.75;;
38238;SDS011;24035;48.900;9.188;2023-12-20T09:44:21;1.90;;;0.52;;
38238;SDS011;24035;48.900;9.188;2023-12-20T09:46:49;1.92;;;0.65;;
38238;SDS011;24035;48.900;9.188;2023-12-20T09:49:17;3.47;;;0.73;;
38238;SDS011;24035;48.900;9.188;2023-12-20T09:51:44;3.33;;;0.55;;
38238;SDS011;24035;48.900;9.188;2023-12-20T09:54:14;2.05;;;0.82;;
38238;SDS011;24035;48.900;9.188;2023-12-20T10:00:04;1.45;;;0.85;;
38238;SDS011;24035;48.900;9.188;2023-12-20T10:02:32;2.05;;;0.50;;
38238;SDS011;24035;48.900;9.188;2023-12-20T10:04:59;3.85;;;0.50;;
38238;SDS011;24035;48.900;9.188;2023-12-20T10:07:26;2.97;;;0.88;;
38238;SDS011;24035;48.900;9.188;2023-12-20T10:09:52;1.27;;;0.40;;
38238;SDS011;24035;48.900;9.188;2023-12-20T10:12:21;1.83;;;0.38;;
38238;SDS011;24035;48.900;9.188;2023-12-20T10:14:46;1.85;;;0.60;;
38238;SDS011;24035;48.900;9.188;2023-12-20T10:17:12;4.53;;;0.40;;
38238;SDS011;24035;48.900;9.188;2023-12-20T10:19:38;3.15;;;0.47;;
38238;SDS011;24035;48.900;9.188;2023-12-20T10:22:04;3.67;;;0.52;;
38238;SDS011;24035;48.900;9.188;2023-12-20T10:24:30;1.95;;;0.32;;
38238;SDS011;24035;48.900;9.188;2023-12-20T10:27:05;1.92;;;0.25;;
38238;SDS011;24035;48.900;9.188;2023-12-20T10:29:38;2.72;;;0.45;;
38238;SDS011;24035;48.900;9.188;2023-12-20T10:32:23;0.82;;;0.30;;
38238;SDS011;24035;48.900;9.188;2023-12-20T10:34:50;0.88;;;0.20;;
38238;SDS011;24035;48.900;9.188;2023-12-20T10:37:16;2.75;;;0.68;;
38238;SDS011;24035;48.900;9.188;2023-12-20T10:39:42;1.45;;;0.47;;
38238;SDS011;24035;48.900;9.188;2023-12-20T10:42:09;1.40;;;0.70;;
38238;SDS011;24035;48.900;9.188;2023-12-20T10:44:37;3.65;;;0.60;;
38238;SDS011;24035;48.900;9.188;2023-12-20T10:47:03;3.38;;;0.60;;
38238;SDS011;24035;48.900;9.188;2023-12-20T10:49:30;0.80;;;0.20;;
38238;SDS011;24035;48.900;9.188;2023-12-20T10:51:57;4.72;;;0.60;;
38238;SDS011;24035;48.900;9.188;2023-12-20T10:54:27;3.70;;;0.57;;
38238;SDS011;24035;48.900;9.188;2023-12-20T10:56:53;3.80;;;0.40;;
38238;SDS011;24035;48.900;9.188;2023-12-20T10:59:21;1.48;;;0.30;;
38238;SDS011;24035;48.900;9.188;2023-12-20T11:01:49;1.58;;;0.35;;
38238;SDS011;24035;48.900;9.188;2023-12-20T11:04:31;3.38;;;0.40;;
38238;SDS011;24035;48.900;9.188;2023-12-20T11:07:25;2.97;;;0.73;;
38238;SDS011;24035;48.900;9.188;2023-12-20T11:10:40;0.88;;;0.20;;
38238;SDS011;24035;48.900;9.188;2023-12-20T11:15:19;3.50;;;0.30;;
38238;SDS011;24035;48.900;9.188;2023-12-20T11:17:45;3.22;;;0.30;;
38238;SDS011;24035;48.900;9.188;2023-12-20T11:20:11;3.20;;;0.45;;
38238;SDS011;24035;48.900;9.188;2023-12-20T11:22:37;0.38;;;0.10;;
38238;SDS011;24035;48.900;9.188;2023-12-20T11:25:10;1.30;;;0.30;;
38238;SDS011;24035;48.900;9.188;2023-12-20T11:27:42;2.05;;;0.70;;
38238;SDS011;24035;48.900;9.188;2023-12-20T11:30:09;1.92;;;0.28;;
38238;SDS011;24035;48.900;9.188;2023-12-20T11:32:35;1.45;;;0.28;;
38238;SDS011;24035;48.900;9.188;2023-12-20T11:37:36;0.95;;;0.40;;
38238;SDS011;24035;48.900;9.188;2023-12-20T11:40:07;3.25;;;0.88;;
38238;SDS011;24035;48.900;9.188;2023-12-20T11:42:43;1.65;;;0.40;;
38238;SDS011;24035;48.900;9.188;2023-12-20T11:45:14;1.42;;;0.43;;
38238;SDS011;24035;48.900;9.188;2023-12-20T11:47:42;4.18;;;1.50;;
38238;SDS011;24035;48.900;9.188;2023-12-20T11:50:10;4.22;;;0.50;;
38238;SDS011;24035;48.900;9.188;2023-12-20T11:52:36;5.75;;;0.50;;
38238;SDS011;24035;48.900;9.188;2023-12-20T11:55:02;5.38;;;0.43;;
38238;SDS011;24035;48.900;9.188;2023-12-20T11:57:29;1.92;;;0.40;;
38238;SDS011;24035;48.900;9.188;2023-12-20T11:59:55;1.85;;;0.45;;
38238;SDS011;24035;48.900;9.188;2023-12-20T12:02:21;1.67;;;0.45;;
38238;SDS011;24035;48.900;9.188;2023-12-20T12:04:49;5.32;;;0.50;;
38238;SDS011;24035;48.900;9.188;2023-12-20T12:07:18;3.10;;;0.40;;
38238;SDS011;24035;48.900;9.188;2023-12-20T12:09:44;1.58;;;0.52;;
38238;SDS011;24035;48.900;9.188;2023-12-20T12:20:09;3.67;;;0.65;;
38238;SDS011;24035;48.900;9.188;2023-12-20T12:22:35;1.63;;;0.35;;
38238;SDS011;24035;48.900;9.188;2023-12-20T12:25:11;0.95;;;0.30;;
38238;SDS011;24035;48.900;9.188;2023-12-20T12:27:41;1.23;;;0.38;;
38238;SDS011;24035;48.900;9.188;2023-12-20T12:30:08;2.13;;;0.40;;
38238;SDS011;24035;48.900;9.188;2023-12-20T12:32:35;4.47;;;0.70;;
38238;SDS011;24035;48.900;9.188;2023-12-20T12:35:04;1.95;;;0.60;;
38238;SDS011;24035;48.900;9.188;2023-12-20T12:37:37;4.30;;;0.65;;
38238;SDS011;24035;48.900;9.188;2023-12-20T12:40:09;1.48;;;0.40;;
38238;SDS011;24035;48.900;9.188;2023-12-20T12:42:36;3.55;;;0.40;;
38238;SDS011;24035;48.900;9.188;2023-12-20T12:45:05;1.92;;;0.38;;
38238;SDS011;24035;48.900;9.188;2023-12-20T12:47:32;3.92;;;0.45;;
38238;SDS011;24035;48.900;9.188;2023-12-20T12:50:01;2.95;;;0.43;;
38238;SDS011;24035;48.900;9.188;2023-12-20T12:52:27;1.88;;;0.47;;
38238;SDS011;24035;48.900;9.188;2023-12-20T12:54:53;1.60;;;0.65;;
38238;SDS011;24035;48.900;9.188;2023-12-20T12:57:19;2.15;;;0.50;;
38238;SDS011;24035;48.900;9.188;2023-12-20T12:59:45;1.10;;;0.30;;
38238;SDS011;24035;48.900;9.188;2023-12-20T13:02:14;2.95;;;0.77;;
38238;SDS011;24035;48.900;9.188;2023-12-20T13:04:40;1.35;;;0.28;;
38238;SDS011;24035;48.900;9.188;2023-12-20T13:07:07;0.93;;;0.50;;
38238;SDS011;24035;48.900;9.188;2023-12-20T13:09:37;7.22;;;0.77;;
38238;SDS011;24035;48.900;9.188;2023-12-20T13:12:05;2.97;;;0.40;;
38238;SDS011;24035;48.900;9.188;2023-12-20T13:14:32;1.25;;;0.40;;
38238;SDS011;24035;48.900;9.188;2023-12-20T13:17:00;3.75;;;1.20;;
38238;SDS011;24035;48.900;9.188;2023-12-20T13:19:26;1.33;;;0.30;;
38238;SDS011;24035;48.900;9.188;2023-12-20T13:21:51;2.17;;;0.43;;
38238;SDS011;24035;48.900;9.188;2023-12-20T13:24:18;1.08;;;0.25;;
38238;SDS011;24035;48.900;9.188;2023-12-20T13:26:44;2.08;;;0.40;;
38238;SDS011;24035;48.900;9.188;2023-12-20T13:29:09;3.47;;;0.55;;
38238;SDS011;24035;48.900;9.188;2023-12-20T13:31:35;2.33;;;0.43;;
38238;SDS011;24035;48.900;9.188;2023-12-20T13:34:02;0.50;;;0.20;;
38238;SDS011;24035;48.900;9.188;2023-12-20T13:36:28;1.50;;;0.80;;
38238;SDS011;24035;48.900;9.188;2023-12-20T13:38:54;0.70;;;0.20;;
38238;SDS011;24035;48.900;9.188;2023-12-20T13:41:20;2.22;;;0.60;;
38238;SDS011;24035;48.900;9.188;2023-12-20T13:43:45;2.38;;;0.38;;
38238;SDS011;24035;48.900;9.188;2023-12-20T13:46:11;0.60;;;0.17;;
38238;SDS011;24035;48.900;9.188;2023-12-20T13:48:37;1.77;;;0.43;;
38238;SDS011;24035;48.900;9.188;2023-12-20T13:51:03;1.10;;;0.30;;
38238;SDS011;24035;48.900;9.188;2023-12-20T13:53:29;2.63;;;0.35;;
38238;SDS011;24035;48.900;9.188;2023-12-20T13:55:55;1.38;;;0.30;;
38238;SDS011;24035;48.900;9.188;2023-12-20T13:58:20;2.47;;;0.60;;
38238;SDS011;24035;48.900;9.188;2023-12-20T14:00:46;1.92;;;0.80;;
38238;SDS011;24035;48.900;9.188;2023-12-20T14:03:12;2.13;;;0.55;;
38238;SDS011;24035;48.900;9.188;2023-12-20T14:05:37;1.70;;;0.35;;
38238;SDS011;24035;48.900;9.188;2023-12-20T14:08:03;2.03;;;0.50;;
38238;SDS011;24035;48.900;9.188;2023-12-20T14:10:29;3.17;;;0.73;;
38238;SDS011;24035;48.900;9.188;2023-12-20T14:12:55;1.50;;;0.55;;
38238;SDS011;24035;48.900;9.188;2023-12-20T14:15:21;1.33;;;0.32;;
38238;SDS011;24035;48.900;9.188;2023-12-20T14:17:50;1.40;;;0.50;;
38238;SDS011;24035;48.900;9.188;2023-12-20T14:20:16;1.25;;;0.22;;
38238;SDS011;24035;48.900;9.188;2023-12-20T14:22:43;1.08;;;0.50;;
38238;SDS011;24035;48.900;9.188;2023-12-20T14:25:15;0.70;;;0.22;;
38238;SDS011;24035;48.900;9.188;2023-12-20T14:27:41;1.98;;;0.65;;
38238;SDS011;24035;48.900;9.188;2023-12-20T14:30:10;0.98;;;0.40;;
38238;SDS011;24035;48.900;9.188;2023-12-20T14:32:36;4.30;;;1.20;;
38238;SDS011;24035;48.900;9.188;2023-12-20T14:35:04;5.65;;;0.35;;
38238;SDS011;24035;48.900;9.188;2023-12-20T14:37:30;2.20;;;0.30;;
38238;SDS011;24035;48.900;9.188;2023-12-20T14:39:56;3.15;;;0.95;;
38238;SDS011;24035;48.900;9.188;2023-12-20T14:42:22;2.13;;;0.30;;
38238;SDS011;24035;48.900;9.188;2023-12-20T14:44:47;1.67;;;0.40;;
38238;SDS011;24035;48.900;9.188;2023-12-20T14:47:13;2.13;;;0.43;;
38238;SDS011;24035;48.900;9.188;2023-12-20T14:49:40;3.55;;;0.65;;
38238;SDS011;24035;48.900;9.188;2023-12-20T14:52:07;2.47;;;0.47;;
38238;SDS011;24035;48.900;9.188;2023-12-20T14:54:36;2.70;;;0.70;;
38238;SDS011;24035;48.900;9.188;2023-12-20T14:57:02;3.40;;;0.50;;
38238;SDS011;24035;48.900;9.188;2023-12-20T14:59:28;5.80;;;0.63;;
38238;SDS011;24035;48.900;9.188;2023-12-20T15:01:53;2.95;;;0.20;;
38238;SDS011;24035;48.900;9.188;2023-12-20T15:04:20;2.88;;;0.68;;